Hamilton City, California
Current Conditions -  °F | °C
As of 11:55 PM on Wednesday 22 Oct 2014 (Local Time) from KCIC Reporting Station
Few Clouds Few Clouds  
Wind Chill: 68°   Ceiling: Unl
Heat Index: 68°   Visibility: 10mi
Dew Point: 41°   Wind: 9mph
Humidity: 37%   Direction: 120°ESE
Pressure: 30"   Gusts: NA
Location:  39.74°N, 122.02°W
Report Text: KCIC 230655Z AUTO 12008KT 10SM FEW110 20/05 A3000 RMK AO1
Loading
Personal Weather Stations






























Interactive Weather Map
Tropical Storm Tracking
New forecast layout! Learn more

10-Day Weather Forecast

Advertisements
Track Severe Weather on mobile